Aviation Digital Data Service (ADDS)

Output produced by METARs form (1447 UTC 23 January 2017)
found at http://aviationweather.gov/adds/metars/
 
KLWB 231140Z 2312/2412 07011G22KT 6SM -SHRA OVC008 
     TEMPO 2312/2316 3SM SHRA SCT008 OVC015 
     FM231800 06008KT 4SM -SHRA BR OVC010 
     FM232300 35006KT 6SM -SHRA OVC010 
     FM240600 32009KT P6SM VCSH OVC015 
     FM241100 30009G17KT P6SM BKN015